Freedom of the Seas — C6UZ7 — position and weather

sailwx.info

Track history (hours):
 
Tides and Currents Weather Stations Pressure Air Temp Water Temp Dewpoint Dewpoint Depression Visibility Wind Speed Wind Dir Waves Ship Positions

Freedom of the Seas

Last reported at 2017-Sep-19 21:22 UTC. Time now 2017-Sep-20 00:35 UTC.
Position N 43°09' E 009°34'.

Length 339 m; draft 9 m.

Type: Passenger vessel. MMSI: 309906000.

Date/timePositionNaut miles runAvg speedWind from/ knotsBaromVisibWave heightAir tempDewpointWater temp
2017-Sep-19 21:22N 43°09' E 009°34'821.5
2017-Sep-19 21:00N 43°16' E 009°33'1221.4
2017-Sep-19 20:25N 43°29' E 009°33'921.7
2017-Sep-19 20:00N 43°37' E 009°38'1121.9
2017-Sep-19 19:30N 43°47' E 009°45'1121.6
2017-Sep-19 19:00N 43°56' E 009°52'816.0
2017-Sep-19 18:30N 44°04' E 009°51'2 4.3
2017-Sep-19 18:00N 44°06' E 009°50'0 0.0
2017-Sep-19 17:30N 44°06' E 009°50'0 0.0
2017-Sep-19 17:00N 44°06' E 009°50'0 0.0
2017-Sep-19 16:30N 44°06' E 009°50'0 0.0
2017-Sep-19 16:00N 44°06' E 009°50'0 0.0
2017-Sep-19 15:30N 44°06' E 009°50'0 0.0
2017-Sep-19 14:54N 44°06' E 009°50'0 0.0
2017-Sep-19 14:30N 44°06' E 009°50'0 0.0
2017-Sep-19 14:00N 44°06' E 009°50'0 0.0
2017-Sep-19 13:30N 44°06' E 009°50'0 0.0
2017-Sep-19 13:00N 44°06' E 009°50'0 0.0
2017-Sep-19 12:30N 44°06' E 009°50'0 0.0
2017-Sep-19 12:00N 44°06' E 009°50'0 0.0
2017-Sep-19 11:30N 44°06' E 009°50'0 0.0
2017-Sep-19 11:00N 44°06' E 009°50'0 0.0
2017-Sep-19 10:30N 44°06' E 009°50'0 0.0
2017-Sep-19 10:00N 44°06' E 009°50'0 0.0
2017-Sep-19 09:30N 44°06' E 009°50'0 0.0
2017-Sep-19 09:00N 44°06' E 009°50'0 0.0
2017-Sep-19 08:30N 44°06' E 009°50'0 0.0
2017-Sep-19 08:00N 44°06' E 009°50'0 0.0
2017-Sep-19 07:30N 44°06' E 009°50'0 0.0
2017-Sep-19 07:00N 44°06' E 009°50'0 0.0
2017-Sep-19 06:30N 44°06' E 009°50'0 0.0
2017-Sep-19 06:00N 44°06' E 009°50'0 0.0
2017-Sep-19 05:30N 44°06' E 009°50'0 0.0
2017-Sep-19 05:00N 44°06' E 009°50'0 0.9
2017-Sep-19 04:30N 44°06' E 009°51'4 7.5
2017-Sep-19 04:00N 44°03' E 009°53'4 8.3
2017-Sep-19 03:30N 43°59' E 009°55'611.1
2017-Sep-19 03:00N 43°57' E 009°47'611.2
2017-Sep-19 02:30N 43°57' E 009°40'611.1
2017-Sep-19 02:00N 43°56' E 009°32'611.3
2017-Sep-19 01:30N 43°55' E 009°24'510.8
2017-Sep-19 01:00N 43°54' E 009°17'510.7
2017-Sep-19 00:30N 43°53' E 009°10'612.2
2017-Sep-19 00:00N 43°52' E 009°01'611.6
2017-Sep-18 23:30N 43°51' E 008°54'611.4
2017-Sep-18 23:00N 43°50' E 008°46'511.0
2017-Sep-18 22:30N 43°49' E 008°38'611.4
2017-Sep-18 22:00N 43°48' E 008°30'57 3.5
2017-Sep-18 05:36N 43°30' E 007°15'217.9
2017-Sep-18 05:30N 43°29' E 007°14'917.9
2017-Sep-18 05:00N 43°22' E 007°06'15219.0
2017-Sep-17 21:00N 42°00' E 004°12'100 5.5 040 / 171018.110.8 18.015.519.0
2017-Sep-17 02:53N 41°18' E 002°11'9613.9
2017-Sep-16 20:00N 41°12' E 004°18'42017.1 340 / 21015.210.8 18.010.623.0
2017-Sep-15 19:24N 40°35' E 013°31'717.6
2017-Sep-15 19:01N 40°35' E 013°40'1517.6
2017-Sep-15 18:11N 40°36' E 013°59'317.4
2017-Sep-15 18:00N 40°37' E 014°02'917.4
2017-Sep-15 17:30N 40°44' E 014°10'36 2.2
2017-Sep-15 01:00N 40°36' E 013°24'123 5.6 230 / 61015.010.8 22.022.018.0
2017-Sep-14 03:00N 42°00' E 011°24'4215.9 120 / 161020.010.8 22.022.018.0
2017-Sep-14 00:23N 42°21' E 010°36'6819.1
2017-Sep-13 20:49N 43°10' E 009°32'2019.1
2017-Sep-13 19:48N 43°30' E 009°34'519.2
2017-Sep-13 19:30N 43°35' E 009°37'1019.4
2017-Sep-13 19:00N 43°43' E 009°43'1019.4
2017-Sep-13 18:30N 43°52' E 009°49'918.1
2017-Sep-13 18:00N 44°01' E 009°52'510.3
2017-Sep-13 17:30N 44°06' E 009°51'1 1.0
2017-Sep-13 16:58N 44°06' E 009°50'0 0.0
2017-Sep-13 16:28N 44°06' E 009°50'0 0.0
2017-Sep-13 15:58N 44°06' E 009°50'0 0.0
2017-Sep-13 15:28N 44°06' E 009°50'0 0.0
2017-Sep-13 14:58N 44°06' E 009°50'0 0.0
2017-Sep-13 14:28N 44°06' E 009°50'0 0.0
2017-Sep-13 13:58N 44°06' E 009°50'0 0.0
2017-Sep-13 13:28N 44°06' E 009°50'0 0.0
2017-Sep-13 12:58N 44°06' E 009°50'0 0.0
2017-Sep-13 12:28N 44°06' E 009°50'0 0.0
2017-Sep-13 11:58N 44°06' E 009°50'0 0.0
2017-Sep-13 11:28N 44°06' E 009°50'0 0.0
2017-Sep-13 10:55N 44°06' E 009°50'0 0.0
2017-Sep-13 10:28N 44°06' E 009°50'0 0.0
2017-Sep-13 09:58N 44°06' E 009°50'0 0.0
2017-Sep-13 09:28N 44°06' E 009°50'0 0.0
2017-Sep-13 08:58N 44°06' E 009°50'0 0.0
2017-Sep-13 08:28N 44°06' E 009°50'0 0.0
2017-Sep-13 07:58N 44°06' E 009°50'0 0.0
2017-Sep-13 07:28N 44°06' E 009°50'0 0.0
2017-Sep-13 06:58N 44°06' E 009°50'0 0.0
2017-Sep-13 06:28N 44°06' E 009°50'0 0.0
2017-Sep-13 05:58N 44°06' E 009°50'0 0.0
2017-Sep-13 05:28N 44°06' E 009°50'0 0.0
2017-Sep-13 04:58N 44°06' E 009°50'1 1.0
2017-Sep-13 04:27N 44°06' E 009°51'3 7.4
2017-Sep-13 04:01N 44°03' E 009°52'4 7.5
2017-Sep-13 03:30N 43°60' E 009°55'510.2
2017-Sep-13 03:00N 43°58' E 009°48'510.7
2017-Sep-13 02:30N 43°57' E 009°41'611.1
2017-Sep-13 02:00N 43°56' E 009°33'611.1
2017-Sep-13 01:31N 43°56' E 009°25'611.3
2017-Sep-13 01:01N 43°55' E 009°18'612.6
2017-Sep-13 00:31N 43°53' E 009°09'612.6
2017-Sep-13 00:01N 43°52' E 009°01'612.5
2017-Sep-12 23:30N 43°50' E 008°52'612.7
2017-Sep-12 23:01N 43°49' E 008°44'612.7
2017-Sep-12 22:31N 43°48' E 008°35'712.5
2017-Sep-12 21:59N 43°47' E 008°26'1515.4
2017-Sep-12 21:00N 43°42' E 008°06'216.4 040 / 161012.810.8 22.017.222.0
2017-Sep-12 20:51N 43°44' E 008°08'411.7
2017-Sep-12 20:31N 43°43' E 008°02'911.6
2017-Sep-12 19:45N 43°41' E 007°51'311.7
2017-Sep-12 19:31N 43°40' E 007°47'611.4
2017-Sep-12 19:01N 43°40' E 007°39'611.5
2017-Sep-12 18:31N 43°40' E 007°31'611.5
2017-Sep-12 18:01N 43°39' E 007°23'4 7.2
2017-Sep-12 17:30N 43°40' E 007°18'1 0.4
2017-Sep-12 14:50N 43°41' E 007°19'0 0.1
2017-Sep-12 14:28N 43°41' E 007°19'0 0.1
2017-Sep-12 14:00N 43°41' E 007°19'0 0.0
2017-Sep-12 13:30N 43°41' E 007°19'0 0.0
2017-Sep-12 04:41N 43°41' E 007°19'2 7.0
2017-Sep-12 04:20N 43°39' E 007°18'410.8
2017-Sep-12 03:59N 43°35' E 007°17'612.2
2017-Sep-12 03:30N 43°29' E 007°16'612.2
2017-Sep-12 03:00N 43°23' E 007°14'611.4
2017-Sep-12 02:30N 43°18' E 007°12'611.7
2017-Sep-12 02:00N 43°12' E 007°09'611.1
2017-Sep-12 01:26N 43°07' E 007°04'4710.5
2017-Sep-11 21:00N 42°48' E 006°06'3812.6 310 / 271008.210.8 19.511.417.6
2017-Sep-11 17:58N 43°05' E 005°19'612.1
2017-Sep-11 17:30N 43°07' E 005°12'611.2
2017-Sep-11 17:00N 43°12' E 005°09'612.2
2017-Sep-11 16:30N 43°17' E 005°14'2 0.2
2017-Sep-11 05:31N 43°17' E 005°12'014.1
2017-Sep-11 05:31N 43°17' E 005°12'713.3
2017-Sep-11 05:01N 43°12' E 005°06'713.3
2017-Sep-11 04:30N 43°07' E 004°60'713.1
2017-Sep-11 04:00N 43°03' E 004°54'713.1
2017-Sep-11 03:30N 42°58' E 004°47'713.6
2017-Sep-11 03:01N 42°53' E 004°40'714.1
2017-Sep-11 02:30N 42°48' E 004°34'9013.8
2017-Sep-10 20:00N 41°42' E 003°12'52 3.0 350 / 141010.210.8 21.010.024.4
2017-Sep-10 02:47N 41°18' E 002°11'  
Track history (hours):
 
Tides and Currents Weather Stations Pressure Air Temp Water Temp Dewpoint Dewpoint Depression Visibility Wind Speed Wind Dir Waves Ship Positions

Freedom of the Seas

Last reported at 2017-Sep-19 21:22 UTC. Time now 2017-Sep-20 00:35 UTC.
Position N 43°09' E 009°34'.

Length 339 m; draft 9 m.

Type: Passenger vessel. MMSI: 309906000.

Date/timePositionNaut miles runAvg speedWind from/ knotsBaromVisibWave heightAir tempDewpointWater temp
2017-Sep-19 21:22N 43°09' E 009°34'821.5
2017-Sep-19 21:00N 43°16' E 009°33'1221.4
2017-Sep-19 20:25N 43°29' E 009°33'921.7
2017-Sep-19 20:00N 43°37' E 009°38'1121.9
2017-Sep-19 19:30N 43°47' E 009°45'1121.6
2017-Sep-19 19:00N 43°56' E 009°52'816.0
2017-Sep-19 18:30N 44°04' E 009°51'2 4.3
2017-Sep-19 18:00N 44°06' E 009°50'0 0.0
2017-Sep-19 17:30N 44°06' E 009°50'0 0.0
2017-Sep-19 17:00N 44°06' E 009°50'0 0.0
2017-Sep-19 16:30N 44°06' E 009°50'0 0.0
2017-Sep-19 16:00N 44°06' E 009°50'0 0.0
2017-Sep-19 15:30N 44°06' E 009°50'0 0.0
2017-Sep-19 14:54N 44°06' E 009°50'0 0.0
2017-Sep-19 14:30N 44°06' E 009°50'0 0.0
2017-Sep-19 14:00N 44°06' E 009°50'0 0.0
2017-Sep-19 13:30N 44°06' E 009°50'0 0.0
2017-Sep-19 13:00N 44°06' E 009°50'0 0.0
2017-Sep-19 12:30N 44°06' E 009°50'0 0.0
2017-Sep-19 12:00N 44°06' E 009°50'0 0.0
2017-Sep-19 11:30N 44°06' E 009°50'0 0.0
2017-Sep-19 11:00N 44°06' E 009°50'0 0.0
2017-Sep-19 10:30N 44°06' E 009°50'0 0.0
2017-Sep-19 10:00N 44°06' E 009°50'0 0.0
2017-Sep-19 09:30N 44°06' E 009°50'0 0.0
2017-Sep-19 09:00N 44°06' E 009°50'0 0.0
2017-Sep-19 08:30N 44°06' E 009°50'0 0.0
2017-Sep-19 08:00N 44°06' E 009°50'0 0.0
2017-Sep-19 07:30N 44°06' E 009°50'0 0.0
2017-Sep-19 07:00N 44°06' E 009°50'0 0.0
2017-Sep-19 06:30N 44°06' E 009°50'0 0.0
2017-Sep-19 06:00N 44°06' E 009°50'0 0.0
2017-Sep-19 05:30N 44°06' E 009°50'0 0.0
2017-Sep-19 05:00N 44°06' E 009°50'0 0.9
2017-Sep-19 04:30N 44°06' E 009°51'4 7.5
2017-Sep-19 04:00N 44°03' E 009°53'4 8.3
2017-Sep-19 03:30N 43°59' E 009°55'611.1
2017-Sep-19 03:00N 43°57' E 009°47'611.2
2017-Sep-19 02:30N 43°57' E 009°40'611.1
2017-Sep-19 02:00N 43°56' E 009°32'611.3
2017-Sep-19 01:30N 43°55' E 009°24'510.8
2017-Sep-19 01:00N 43°54' E 009°17'510.7
2017-Sep-19 00:30N 43°53' E 009°10'612.2
2017-Sep-19 00:00N 43°52' E 009°01'611.6
2017-Sep-18 23:30N 43°51' E 008°54'611.4
2017-Sep-18 23:00N 43°50' E 008°46'511.0
2017-Sep-18 22:30N 43°49' E 008°38'611.4
2017-Sep-18 22:00N 43°48' E 008°30'57 3.5
2017-Sep-18 05:36N 43°30' E 007°15'217.9
2017-Sep-18 05:30N 43°29' E 007°14'917.9
2017-Sep-18 05:00N 43°22' E 007°06'15219.0
2017-Sep-17 21:00N 42°00' E 004°12'100 5.5 040 / 171018.110.8 18.015.519.0
2017-Sep-17 02:53N 41°18' E 002°11'9613.9
2017-Sep-16 20:00N 41°12' E 004°18'42017.1 340 / 21015.210.8 18.010.623.0
2017-Sep-15 19:24N 40°35' E 013°31'717.6
2017-Sep-15 19:01N 40°35' E 013°40'1517.6
2017-Sep-15 18:11N 40°36' E 013°59'317.4
2017-Sep-15 18:00N 40°37' E 014°02'917.4
2017-Sep-15 17:30N 40°44' E 014°10'36 2.2
2017-Sep-15 01:00N 40°36' E 013°24'123 5.6 230 / 61015.010.8 22.022.018.0
2017-Sep-14 03:00N 42°00' E 011°24'4215.9 120 / 161020.010.8 22.022.018.0
2017-Sep-14 00:23N 42°21' E 010°36'6819.1
2017-Sep-13 20:49N 43°10' E 009°32'2019.1
2017-Sep-13 19:48N 43°30' E 009°34'519.2
2017-Sep-13 19:30N 43°35' E 009°37'1019.4
2017-Sep-13 19:00N 43°43' E 009°43'1019.4
2017-Sep-13 18:30N 43°52' E 009°49'918.1
2017-Sep-13 18:00N 44°01' E 009°52'510.3
2017-Sep-13 17:30N 44°06' E 009°51'1 1.0
2017-Sep-13 16:58N 44°06' E 009°50'0 0.0
2017-Sep-13 16:28N 44°06' E 009°50'0 0.0
2017-Sep-13 15:58N 44°06' E 009°50'0 0.0
2017-Sep-13 15:28N 44°06' E 009°50'0 0.0
2017-Sep-13 14:58N 44°06' E 009°50'0 0.0
2017-Sep-13 14:28N 44°06' E 009°50'0 0.0
2017-Sep-13 13:58N 44°06' E 009°50'0 0.0
2017-Sep-13 13:28N 44°06' E 009°50'0 0.0
2017-Sep-13 12:58N 44°06' E 009°50'0 0.0
2017-Sep-13 12:28N 44°06' E 009°50'0 0.0
2017-Sep-13 11:58N 44°06' E 009°50'0 0.0
2017-Sep-13 11:28N 44°06' E 009°50'0 0.0
2017-Sep-13 10:55N 44°06' E 009°50'0 0.0
2017-Sep-13 10:28N 44°06' E 009°50'0 0.0
2017-Sep-13 09:58N 44°06' E 009°50'0 0.0
2017-Sep-13 09:28N 44°06' E 009°50'0 0.0
2017-Sep-13 08:58N 44°06' E 009°50'0 0.0
2017-Sep-13 08:28N 44°06' E 009°50'0 0.0
2017-Sep-13 07:58N 44°06' E 009°50'0 0.0
2017-Sep-13 07:28N 44°06' E 009°50'0 0.0
2017-Sep-13 06:58N 44°06' E 009°50'0 0.0
2017-Sep-13 06:28N 44°06' E 009°50'0 0.0
2017-Sep-13 05:58N 44°06' E 009°50'0 0.0
2017-Sep-13 05:28N 44°06' E 009°50'0 0.0
2017-Sep-13 04:58N 44°06' E 009°50'1 1.0
2017-Sep-13 04:27N 44°06' E 009°51'3 7.4
2017-Sep-13 04:01N 44°03' E 009°52'4 7.5
2017-Sep-13 03:30N 43°60' E 009°55'510.2
2017-Sep-13 03:00N 43°58' E 009°48'510.7
2017-Sep-13 02:30N 43°57' E 009°41'611.1
2017-Sep-13 02:00N 43°56' E 009°33'611.1
2017-Sep-13 01:31N 43°56' E 009°25'611.3
2017-Sep-13 01:01N 43°55' E 009°18'612.6
2017-Sep-13 00:31N 43°53' E 009°09'612.6
2017-Sep-13 00:01N 43°52' E 009°01'612.5
2017-Sep-12 23:30N 43°50' E 008°52'612.7
2017-Sep-12 23:01N 43°49' E 008°44'612.7
2017-Sep-12 22:31N 43°48' E 008°35'712.5
2017-Sep-12 21:59N 43°47' E 008°26'1515.4
2017-Sep-12 21:00N 43°42' E 008°06'216.4 040 / 161012.810.8 22.017.222.0
2017-Sep-12 20:51N 43°44' E 008°08'411.7
2017-Sep-12 20:31N 43°43' E 008°02'911.6
2017-Sep-12 19:45N 43°41' E 007°51'311.7
2017-Sep-12 19:31N 43°40' E 007°47'611.4
2017-Sep-12 19:01N 43°40' E 007°39'611.5
2017-Sep-12 18:31N 43°40' E 007°31'611.5
2017-Sep-12 18:01N 43°39' E 007°23'4 7.2
2017-Sep-12 17:30N 43°40' E 007°18'1 0.4
2017-Sep-12 14:50N 43°41' E 007°19'0 0.1
2017-Sep-12 14:28N 43°41' E 007°19'0 0.1
2017-Sep-12 14:00N 43°41' E 007°19'0 0.0
2017-Sep-12 13:30N 43°41' E 007°19'0 0.0
2017-Sep-12 04:41N 43°41' E 007°19'2 7.0
2017-Sep-12 04:20N 43°39' E 007°18'410.8
2017-Sep-12 03:59N 43°35' E 007°17'612.2
2017-Sep-12 03:30N 43°29' E 007°16'612.2
2017-Sep-12 03:00N 43°23' E 007°14'611.4
2017-Sep-12 02:30N 43°18' E 007°12'611.7
2017-Sep-12 02:00N 43°12' E 007°09'611.1
2017-Sep-12 01:26N 43°07' E 007°04'4710.5
2017-Sep-11 21:00N 42°48' E 006°06'3812.6 310 / 271008.210.8 19.511.417.6
2017-Sep-11 17:58N 43°05' E 005°19'612.1
2017-Sep-11 17:30N 43°07' E 005°12'611.2
2017-Sep-11 17:00N 43°12' E 005°09'612.2
2017-Sep-11 16:30N 43°17' E 005°14'2 0.2
2017-Sep-11 05:31N 43°17' E 005°12'014.1
2017-Sep-11 05:31N 43°17' E 005°12'713.3
2017-Sep-11 05:01N 43°12' E 005°06'713.3
2017-Sep-11 04:30N 43°07' E 004°60'713.1
2017-Sep-11 04:00N 43°03' E 004°54'713.1
2017-Sep-11 03:30N 42°58' E 004°47'713.6
2017-Sep-11 03:01N 42°53' E 004°40'714.1
2017-Sep-11 02:30N 42°48' E 004°34'9013.8
2017-Sep-10 20:00N 41°42' E 003°12'52 3.0 350 / 141010.210.8 21.010.024.4
2017-Sep-10 02:47N 41°18' E 002°11'  

Dump ship's entire track history